Bookmark and Share
Track history (hours):
 

Sea Jet

More information available from US FCC via Universal Licensing System and Coast Guard Vessel Documentation Center.

Last reported at 2014-Apr-24 19:33 UTC. Time now 2014-Apr-24 20:10 UTC.
Position N 41°21' W 072°06'.

Length 33 m.

Type: High speed craft. MMSI: 367117430.

NotesDate/timePositionNaut miles runAvg speedWind from/ knotsBaromVisibWave heightAir tempDewpointWater temp
2014-Apr-24 19:33N 41°21' W 072°06'0 0.0
2014-Apr-24 18:25N 41°21' W 072°06'0 0.0
2014-Apr-24 17:33N 41°21' W 072°06'0 0.0
2014-Apr-24 16:31N 41°21' W 072°06'0 0.0
2014-Apr-24 15:22N 41°21' W 072°06'0 0.0
2014-Apr-24 14:27N 41°21' W 072°06'4 2.1
2014-Apr-24 12:18N 41°17' W 072°06'4 6.0
2014-Apr-24 11:33N 41°21' W 072°06'4 0.3
2014-Apr-23 22:25N 41°17' W 072°05'7 8.1
2014-Apr-23 21:34N 41°12' W 072°12'10 9.6
2014-Apr-23 20:30N 41°21' W 072°06'0 0.0
2014-Apr-23 19:17N 41°21' W 072°06'0 0.0
2014-Apr-23 18:33N 41°21' W 072°06'0 0.0
2014-Apr-23 17:33N 41°21' W 072°06'0 0.0
2014-Apr-23 16:33N 41°21' W 072°06'0 0.0
2014-Apr-23 15:33N 41°21' W 072°06'0 0.0
2014-Apr-23 14:33N 41°21' W 072°06'2 1.8
2014-Apr-23 13:34N 41°20' W 072°05'7 6.8
2014-Apr-23 12:34N 41°14' W 072°10'8 8.2
2014-Apr-23 11:33N 41°21' W 072°06'1 0.1
2014-Apr-22 22:33N 41°21' W 072°05'8 7.8
2014-Apr-22 21:34N 41°14' W 072°10'8 8.2
2014-Apr-22 20:33N 41°21' W 072°06'0 0.0
2014-Apr-22 19:14N 41°21' W 072°06'0 0.0
2014-Apr-22 18:33N 41°21' W 072°06'0 0.0
2014-Apr-22 17:34N 41°21' W 072°06'0 0.0
2014-Apr-22 16:33N 41°21' W 072°06'0 0.0
2014-Apr-22 15:30N 41°21' W 072°06'0 0.0
2014-Apr-22 14:11N 41°21' W 072°06'1 2.1
2014-Apr-22 13:33N 41°20' W 072°05'8 7.8
2014-Apr-22 12:34N 41°14' W 072°11'9 8.7
2014-Apr-22 11:34N 41°21' W 072°06'1 0.1
2014-Apr-21 22:33N 41°21' W 072°05'8 8.2
2014-Apr-21 21:34N 41°14' W 072°12'9 8.7
2014-Apr-21 20:33N 41°21' W 072°06'0 0.0
2014-Apr-21 19:33N 41°21' W 072°06'0 0.0
2014-Apr-21 18:33N 41°21' W 072°06'0 0.0
2014-Apr-21 17:33N 41°21' W 072°06'0 0.0
2014-Apr-21 16:33N 41°21' W 072°06'0 0.0
2014-Apr-21 15:33N 41°21' W 072°06'0 0.0
2014-Apr-21 14:33N 41°21' W 072°06'2 1.7
2014-Apr-21 13:33N 41°20' W 072°05'9 8.9
2014-Apr-21 12:33N 41°13' W 072°12'1010.0
2014-Apr-21 11:33N 41°21' W 072°06'1 0.1
2014-Apr-21 00:34N 41°20' W 072°05'10 9.6
2014-Apr-20 23:34N 41°12' W 072°12'9 9.5
2014-Apr-20 22:34N 41°20' W 072°05'9 9.3
2014-Apr-20 21:34N 41°13' W 072°13'1010.3
2014-Apr-20 20:33N 41°21' W 072°06'0 0.0
2014-Apr-20 19:33N 41°21' W 072°06'0 0.0
2014-Apr-20 18:33N 41°21' W 072°06'0 0.0
2014-Apr-20 17:33N 41°21' W 072°06'0 0.0
2014-Apr-20 16:33N 41°21' W 072°06'0 0.0
2014-Apr-20 15:33N 41°21' W 072°06'2 1.9
2014-Apr-20 14:34N 41°20' W 072°05'1010.1
2014-Apr-20 13:33N 41°12' W 072°13'1010.5
2014-Apr-20 12:34N 41°20' W 072°05'1010.0
2014-Apr-20 11:34N 41°12' W 072°12'10 0.9
2014-Apr-20 00:34N 41°20' W 072°05'8 8.4
2014-Apr-19 23:34N 41°13' W 072°11'8 8.3
2014-Apr-19 22:33N 41°20' W 072°05'10 9.7
2014-Apr-19 21:34N 41°12' W 072°12'1010.4
2014-Apr-19 20:33N 41°21' W 072°06'0 0.0
2014-Apr-19 19:33N 41°21' W 072°06'0 0.0
2014-Apr-19 18:33N 41°21' W 072°06'0 0.0
2014-Apr-19 17:33N 41°21' W 072°06'0 0.0
2014-Apr-19 16:33N 41°21' W 072°06'0 0.0
2014-Apr-19 15:33N 41°21' W 072°06'1 1.4
2014-Apr-19 14:34N 41°20' W 072°05'9 8.6
2014-Apr-19 13:34N 41°13' W 072°11'9 8.7
2014-Apr-19 12:34N 41°20' W 072°05'10 9.6
2014-Apr-19 11:34N 41°12' W 072°12'1110.6
2014-Apr-19 10:33N 41°21' W 072°06'1 0.1
2014-Apr-19 00:34N 41°20' W 072°05'10 9.5
2014-Apr-18 23:33N 41°12' W 072°12'10 9.8
2014-Apr-18 22:33N 41°20' W 072°05'1010.1
2014-Apr-18 21:34N 41°12' W 072°12'11 1.7
2014-Apr-18 15:04N 41°21' W 072°06'3 5.2
2014-Apr-18 14:34N 41°19' W 072°05'10 9.7
2014-Apr-18 13:34N 41°11' W 072°13'1010.5
2014-Apr-18 12:34N 41°20' W 072°05'1010.4
2014-Apr-18 11:33N 41°11' W 072°13'1211.7
2014-Apr-18 10:34N 41°21' W 072°06'  

Dump ship's entire track history

sailing weather and tide predictions

Sea Jet — WDD2601 — position and weather